createdAt,value
2023-05-14T00:02:08.087Z,7.53
2023-05-14T00:06:11.152Z,6.03
2023-05-14T00:10:14.015Z,14.07
2023-05-14T00:14:16.898Z,11.15
2023-05-14T00:18:21.149Z,17.02
2023-05-14T00:22:23.977Z,16.38
2023-05-14T00:26:26.805Z,16.58
2023-05-14T00:30:29.765Z,16.13
2023-05-14T00:34:34.041Z,17.08
2023-05-14T00:38:37.044Z,16.35
2023-05-14T00:42:40.678Z,15.75
2023-05-14T00:46:43.925Z,11.35
2023-05-14T00:50:50.493Z,11.88
2023-05-14T00:54:53.453Z,11.82
2023-05-14T00:58:56.345Z,12.30
2023-05-14T01:03:01.899Z,14.73
2023-05-14T01:07:13.285Z,14.60
2023-05-14T01:11:22.661Z,15.57
2023-05-14T01:15:29.566Z,15.00
2023-05-14T01:19:38.259Z,16.38
2023-05-14T01:23:42.438Z,15.15
2023-05-14T01:27:50.960Z,15.48
2023-05-14T01:31:56.690Z,15.60
2023-05-14T01:35:59.767Z,15.57
2023-05-14T01:40:04.919Z,16.67
2023-05-14T01:44:10.157Z,14.13
2023-05-14T01:48:13.732Z,15.02
2023-05-14T01:52:20.960Z,15.43
2023-05-14T01:56:25.550Z,15.65
2023-05-14T02:00:28.515Z,16.48
2023-05-14T02:04:31.366Z,16.92
2023-05-14T02:08:34.194Z,14.95
2023-05-14T02:12:38.455Z,17.15
2023-05-14T02:16:41.341Z,15.85
2023-05-14T02:20:44.248Z,15.50
2023-05-14T02:24:47.064Z,16.13
2023-05-14T02:28:51.299Z,17.13
2023-05-14T02:32:55.006Z,16.05
2023-05-14T02:36:57.963Z,16.88
2023-05-14T02:41:00.789Z,17.00
2023-05-14T02:45:05.642Z,18.13
2023-05-14T02:49:08.610Z,18.00
2023-05-14T02:53:11.512Z,18.13
2023-05-14T02:57:14.627Z,16.88
2023-05-14T03:01:19.274Z,17.85
2023-05-14T03:05:22.778Z,16.70
2023-05-14T03:09:25.613Z,16.55
2023-05-14T03:13:28.354Z,16.67
2023-05-14T03:17:32.580Z,16.63
2023-05-14T03:21:35.470Z,15.70
2023-05-14T03:25:38.209Z,16.30
2023-05-14T03:29:41.015Z,16.33
2023-05-14T03:33:45.359Z,15.63
2023-05-14T03:37:48.179Z,15.93
2023-05-14T03:41:51.330Z,16.20
2023-05-14T03:45:54.264Z,15.88
2023-05-14T03:49:58.496Z,15.30
2023-05-14T03:54:01.462Z,15.45
2023-05-14T03:58:07.346Z,14.95
2023-05-14T04:02:10.287Z,15.70
2023-05-14T04:06:14.556Z,15.32
2023-05-14T04:10:17.401Z,14.48
2023-05-14T04:14:20.243Z,17.10
2023-05-14T04:18:24.084Z,17.38
2023-05-14T04:22:28.368Z,15.68
2023-05-14T04:26:31.168Z,17.38
2023-05-14T04:30:34.021Z,15.82
2023-05-14T04:34:36.834Z,16.05
2023-05-14T04:38:41.524Z,16.80
2023-05-14T04:42:44.463Z,15.93
2023-05-14T04:46:47.352Z,15.65
2023-05-14T04:50:50.182Z,16.40
2023-05-14T04:54:54.488Z,16.70
2023-05-14T04:58:57.323Z,16.88
2023-05-14T05:03:00.316Z,15.82
2023-05-14T05:07:03.482Z,16.00
2023-05-14T05:11:07.767Z,16.17
2023-05-14T05:15:10.987Z,15.55
2023-05-14T05:19:13.921Z,15.63
2023-05-14T05:23:16.772Z,15.52
2023-05-14T05:27:22.009Z,15.60
2023-05-14T05:31:25.021Z,14.32
2023-05-14T05:35:27.975Z,14.70
2023-05-14T05:39:34.625Z,15.48
2023-05-14T05:43:38.865Z,14.93
2023-05-14T05:47:41.749Z,15.43
2023-05-14T05:51:44.615Z,16.17
2023-05-14T05:55:47.535Z,16.42
2023-05-14T05:59:51.742Z,15.77
2023-05-14T06:03:54.659Z,15.82
2023-05-14T06:07:57.462Z,15.23
2023-05-14T06:12:00.326Z,15.43
2023-05-14T06:16:04.780Z,15.30
2023-05-14T06:20:08.995Z,16.92
2023-05-14T06:24:13.277Z,16.83
2023-05-14T06:28:16.110Z,16.92
2023-05-14T06:32:20.453Z,17.60
2023-05-14T06:36:23.319Z,16.40
2023-05-14T06:40:26.339Z,16.88
2023-05-14T06:44:29.761Z,15.18
2023-05-14T06:48:33.995Z,15.68
2023-05-14T06:52:37.469Z,15.60
2023-05-14T06:56:40.358Z,14.40
2023-05-14T07:00:43.984Z,15.52
2023-05-14T07:04:48.383Z,14.20
2023-05-14T07:08:51.401Z,14.57
2023-05-14T07:12:54.205Z,14.15
2023-05-14T07:16:57.263Z,13.60
2023-05-14T07:21:01.539Z,14.48
2023-05-14T07:25:04.425Z,13.75
2023-05-14T07:29:07.244Z,14.30
2023-05-14T07:33:10.181Z,13.82
2023-05-14T07:37:14.543Z,14.13
2023-05-14T07:41:17.544Z,13.43
2023-05-14T07:45:20.377Z,12.77
2023-05-14T07:49:23.181Z,13.43
2023-05-14T07:53:27.431Z,13.20
2023-05-14T07:57:30.298Z,13.68
2023-05-14T08:01:33.167Z,12.57
2023-05-14T08:05:36.054Z,13.30
2023-05-14T08:09:40.278Z,12.38
2023-05-14T08:13:43.093Z,12.70
2023-05-14T08:17:45.932Z,12.50
2023-05-14T08:21:48.661Z,11.95
2023-05-14T08:25:52.784Z,11.93
2023-05-14T08:29:55.560Z,12.80
2023-05-14T08:33:58.440Z,11.95
2023-05-14T08:38:01.291Z,13.57
2023-05-14T08:42:08.387Z,11.50
2023-05-14T08:46:14.354Z,11.88
2023-05-14T08:50:17.658Z,11.35
2023-05-14T08:54:22.590Z,10.35
2023-05-14T08:58:28.681Z,10.60
2023-05-14T09:02:33.162Z,11.57
2023-05-14T09:06:37.828Z,12.13
2023-05-14T09:10:41.161Z,12.20
2023-05-14T09:14:46.047Z,13.68
2023-05-14T09:18:49.255Z,12.77
2023-05-14T09:22:54.154Z,13.73
2023-05-14T09:26:58.720Z,13.90
2023-05-14T09:31:03.533Z,14.50
2023-05-14T09:35:16.984Z,13.75
2023-05-14T09:39:19.827Z,13.25
2023-05-14T09:43:22.669Z,12.77
2023-05-14T09:47:27.029Z,11.60
2023-05-14T09:51:32.589Z,11.52
2023-05-14T09:55:37.390Z,12.17
2023-05-14T09:59:40.265Z,13.05
2023-05-14T10:03:44.636Z,12.15
2023-05-14T10:07:49.380Z,11.73
2023-05-14T10:11:56.762Z,11.45
2023-05-14T10:16:06.219Z,11.75
2023-05-14T10:20:13.825Z,10.80
2023-05-14T10:24:17.267Z,11.48
2023-05-14T10:28:20.347Z,11.07
2023-05-14T10:32:25.501Z,11.38
2023-05-14T10:36:29.681Z,11.30
2023-05-14T10:40:33.149Z,11.15
2023-05-14T10:44:36.772Z,11.30
2023-05-14T10:48:42.885Z,11.40
2023-05-14T10:52:47.218Z,14.68
2023-05-14T10:56:50.717Z,11.45
2023-05-14T11:00:55.944Z,10.20
2023-05-14T11:05:03.638Z,10.15
2023-05-14T11:09:08.204Z,10.40
2023-05-14T11:13:12.706Z,9.07
2023-05-14T11:17:16.350Z,9.35
2023-05-14T11:21:19.400Z,8.88
2023-05-14T11:25:25.668Z,9.98
2023-05-14T11:29:28.559Z,8.73
2023-05-14T11:33:31.570Z,8.95
2023-05-14T11:37:34.437Z,8.80
2023-05-14T11:41:45.577Z,8.48
2023-05-14T11:45:51.394Z,8.70
2023-05-14T11:49:54.650Z,7.93
2023-05-14T11:53:58.807Z,8.30
2023-05-14T11:58:03.165Z,8.15
2023-05-14T12:02:07.017Z,7.03
2023-05-14T12:06:09.836Z,7.65
2023-05-14T12:10:13.774Z,6.82
2023-05-14T12:14:19.727Z,6.65
2023-05-14T12:18:25.028Z,6.15
2023-05-14T12:22:30.812Z,5.80
2023-05-14T12:26:34.749Z,5.87
2023-05-14T12:30:40.025Z,5.65
2023-05-14T12:34:42.901Z,4.72
2023-05-14T12:38:45.695Z,5.10
2023-05-14T12:42:48.457Z,5.00
2023-05-14T12:46:52.651Z,4.47
2023-05-14T12:50:55.452Z,3.70
2023-05-14T12:54:58.424Z,3.22
2023-05-14T12:59:01.198Z,3.72
2023-05-14T13:03:05.307Z,3.88
2023-05-14T13:07:08.852Z,3.60
2023-05-14T13:11:11.710Z,3.90
2023-05-14T13:15:14.629Z,3.33
2023-05-14T13:19:18.849Z,3.50
2023-05-14T13:23:21.646Z,3.97
2023-05-14T13:27:24.891Z,3.50
2023-05-14T13:31:27.862Z,3.63
2023-05-14T13:35:32.259Z,8.43
2023-05-14T13:39:35.053Z,3.67
2023-05-14T13:43:38.042Z,3.30
2023-05-14T13:47:41.179Z,4.70
2023-05-14T13:51:45.778Z,4.00
2023-05-14T13:55:49.294Z,3.83
2023-05-14T13:59:52.292Z,3.65
2023-05-14T14:03:55.110Z,3.92
2023-05-14T14:08:04.605Z,3.92
2023-05-14T14:12:11.381Z,3.78
2023-05-14T14:16:14.210Z,3.63
2023-05-14T14:20:17.084Z,4.03
2023-05-14T14:24:21.252Z,3.65
2023-05-14T14:28:24.110Z,3.65
2023-05-14T14:32:26.889Z,3.60
2023-05-14T14:36:30.613Z,3.00
2023-05-14T14:40:35.516Z,2.72
2023-05-14T14:44:38.216Z,2.60
2023-05-14T14:48:41.721Z,2.67
2023-05-14T14:52:46.016Z,3.70
2023-05-14T14:56:52.383Z,3.33
2023-05-14T15:04:58.373Z,2.28
2023-05-14T15:09:01.188Z,2.28
2023-05-14T15:13:06.871Z,2.83
2023-05-14T15:17:10.416Z,2.95
2023-05-14T15:21:13.516Z,2.58
2023-05-14T15:25:16.328Z,2.60
2023-05-14T15:29:20.554Z,2.92
2023-05-14T15:33:23.661Z,2.90
2023-05-14T15:37:27.531Z,2.72
2023-05-14T15:41:31.210Z,2.55
2023-05-14T15:45:35.394Z,2.40
2023-05-14T15:49:38.147Z,2.50
2023-05-14T15:53:40.969Z,2.70
2023-05-14T15:57:43.886Z,2.30
2023-05-14T16:01:48.172Z,2.80
2023-05-14T16:05:52.023Z,2.90
2023-05-14T16:09:54.870Z,2.90
2023-05-14T16:13:58.391Z,2.85
2023-05-14T16:18:02.613Z,2.40
2023-05-14T16:22:05.516Z,2.60
2023-05-14T16:26:08.333Z,2.67
2023-05-14T16:30:11.853Z,2.60
2023-05-14T16:34:16.110Z,2.85
2023-05-14T16:38:19.164Z,3.13
2023-05-14T16:42:22.154Z,2.97
2023-05-14T16:46:24.943Z,2.40
2023-05-14T16:50:29.139Z,3.20
2023-05-14T16:54:31.899Z,3.67
2023-05-14T16:58:34.756Z,3.97
2023-05-14T17:02:37.577Z,4.05
2023-05-14T17:06:41.666Z,3.45
2023-05-14T17:10:44.477Z,3.33
2023-05-14T17:14:47.287Z,3.55
2023-05-14T17:18:50.122Z,3.05
2023-05-14T17:22:54.224Z,3.03
2023-05-14T17:26:57.046Z,2.35
2023-05-14T17:30:59.845Z,2.67
2023-05-14T17:35:02.744Z,1.92
2023-05-14T17:39:06.951Z,2.00
2023-05-14T17:43:09.781Z,2.35
2023-05-14T17:47:12.651Z,2.22
2023-05-14T17:51:15.418Z,2.70
2023-05-14T17:55:19.626Z,2.80
2023-05-14T17:59:24.201Z,2.70
2023-05-14T18:03:27.402Z,2.55
2023-05-14T18:07:30.937Z,2.75
2023-05-14T18:11:35.560Z,2.60
2023-05-14T18:15:38.717Z,2.47
2023-05-14T18:19:41.648Z,3.00
2023-05-14T18:23:44.467Z,2.80
2023-05-14T18:27:48.571Z,2.58
2023-05-14T18:31:51.330Z,2.22
2023-05-14T18:35:54.429Z,2.92
2023-05-14T18:39:57.211Z,2.60
2023-05-14T18:44:02.244Z,2.85
2023-05-14T18:48:06.050Z,3.28
2023-05-14T18:52:08.879Z,3.53
2023-05-14T18:56:11.623Z,3.58
2023-05-14T19:00:16.842Z,3.92
2023-05-14T19:04:22.842Z,3.95
2023-05-14T19:08:25.629Z,4.15
2023-05-14T19:12:28.441Z,4.20
2023-05-14T19:16:32.750Z,3.42
2023-05-14T19:20:35.643Z,4.57
2023-05-14T19:24:38.808Z,3.90
2023-05-14T19:28:41.656Z,3.70
2023-05-14T19:32:45.873Z,3.80
2023-05-14T19:36:48.702Z,4.15
2023-05-14T19:40:53.308Z,4.28
2023-05-14T19:44:56.342Z,4.32
2023-05-14T19:49:00.674Z,4.80
2023-05-14T19:53:04.033Z,4.47
2023-05-14T19:57:07.324Z,4.70
2023-05-14T20:01:12.038Z,4.35
2023-05-14T20:05:17.670Z,4.70
2023-05-14T20:09:21.164Z,4.95
2023-05-14T20:13:25.140Z,5.50
2023-05-14T20:17:28.273Z,4.63
2023-05-14T20:21:32.566Z,5.72
2023-05-14T20:25:35.979Z,5.82
2023-05-14T20:29:38.836Z,5.38
2023-05-14T20:33:41.657Z,6.03
2023-05-14T20:37:47.212Z,6.10
2023-05-14T20:41:50.073Z,5.97
2023-05-14T20:45:52.903Z,5.53
2023-05-14T20:49:55.723Z,5.03
2023-05-14T20:53:59.891Z,6.93
2023-05-14T20:58:02.703Z,7.20
2023-05-14T21:02:06.030Z,5.82
2023-05-14T21:06:08.923Z,5.88
2023-05-14T21:10:13.268Z,5.50
2023-05-14T21:14:16.060Z,5.97
2023-05-14T21:18:18.906Z,5.53
2023-05-14T21:22:22.614Z,5.80
2023-05-14T21:26:26.987Z,5.80
2023-05-14T21:30:29.836Z,5.68
2023-05-14T21:34:32.910Z,5.80
2023-05-14T21:38:36.059Z,5.65
2023-05-14T21:42:40.718Z,4.78
2023-05-14T21:46:43.539Z,5.75
2023-05-14T21:50:46.446Z,5.55
2023-05-14T21:54:49.283Z,5.72
2023-05-14T21:58:55.488Z,5.20
2023-05-14T22:02:58.440Z,5.32
2023-05-14T22:07:01.530Z,5.63
2023-05-14T22:11:04.670Z,5.82
2023-05-14T22:15:10.227Z,5.82
2023-05-14T22:19:13.258Z,5.73
2023-05-14T22:23:16.185Z,6.10
2023-05-14T22:27:19.212Z,6.13
2023-05-14T22:31:23.457Z,6.47
2023-05-14T22:35:26.406Z,6.25
2023-05-14T22:39:29.643Z,6.15
2023-05-14T22:43:32.440Z,5.88
2023-05-14T22:47:36.716Z,6.15
2023-05-14T22:51:39.693Z,5.68
2023-05-14T22:55:42.502Z,5.85
2023-05-14T22:59:45.380Z,6.18
2023-05-14T23:03:49.539Z,6.07
2023-05-14T23:07:53.459Z,5.82
2023-05-14T23:11:56.263Z,6.07
2023-05-14T23:15:59.075Z,5.95
2023-05-14T23:20:04.893Z,7.32
2023-05-14T23:24:08.358Z,6.57
2023-05-14T23:28:11.240Z,7.15
2023-05-14T23:32:14.048Z,6.30
2023-05-14T23:36:18.255Z,7.18
2023-05-14T23:40:20.995Z,7.15
2023-05-14T23:44:23.783Z,7.47
2023-05-14T23:48:26.712Z,7.30
2023-05-14T23:52:30.787Z,6.90
2023-05-14T23:56:34.254Z,6.63
